createdAt,value
2022-08-27T00:00:57.039Z,24.05
2022-08-27T00:01:57.051Z,24.05
2022-08-27T00:02:57.026Z,24.06
2022-08-27T00:03:57.020Z,24.03
2022-08-27T00:04:56.986Z,24.06
2022-08-27T00:05:56.992Z,24.05
2022-08-27T00:06:56.963Z,24.05
2022-08-27T00:07:56.950Z,24.05
2022-08-27T00:08:56.959Z,24.05
2022-08-27T00:09:56.928Z,24.03
2022-08-27T00:10:56.922Z,24.05
2022-08-27T00:11:56.908Z,24.05
2022-08-27T00:12:56.898Z,24.05
2022-08-27T00:13:56.906Z,24.05
2022-08-27T00:14:56.877Z,24.06
2022-08-27T00:15:56.865Z,24.05
2022-08-27T00:16:56.857Z,24.05
2022-08-27T00:17:56.846Z,24.05
2022-08-27T00:18:56.857Z,24.05
2022-08-27T00:19:56.825Z,24.05
2022-08-27T00:20:56.817Z,24.05
2022-08-27T00:21:56.802Z,24.03
2022-08-27T00:22:56.794Z,24.05
2022-08-27T00:23:56.801Z,24.03
2022-08-27T00:24:56.775Z,24.05
2022-08-27T00:25:56.761Z,24.03
2022-08-27T00:26:56.753Z,24.05
2022-08-27T00:27:56.761Z,24.05
2022-08-27T00:28:56.750Z,24.05
2022-08-27T00:29:56.720Z,24.03
2022-08-27T00:30:56.712Z,24.03
2022-08-27T00:31:56.784Z,24.03
2022-08-27T00:32:56.706Z,24.03
2022-08-27T00:33:56.699Z,24.03
2022-08-27T00:34:56.667Z,24.03
2022-08-27T00:35:56.656Z,24.03
2022-08-27T00:36:56.650Z,24.06
2022-08-27T00:37:56.637Z,24.05
2022-08-27T00:38:56.627Z,24.03
2022-08-27T00:39:56.710Z,24.03
2022-08-27T00:40:56.605Z,24.03
2022-08-27T00:41:56.594Z,24.03
2022-08-27T00:42:56.587Z,24.03
2022-08-27T00:43:56.574Z,24.03
2022-08-27T00:44:56.584Z,24.05
2022-08-27T00:45:56.656Z,24.03
2022-08-27T00:46:56.544Z,24.03
2022-08-27T00:47:56.553Z,24.03
2022-08-27T00:48:56.523Z,24.05
2022-08-27T00:49:56.510Z,24.03
2022-08-27T00:50:56.500Z,24.03
2022-08-27T00:51:56.489Z,24.03
2022-08-27T00:52:56.478Z,24.03
2022-08-27T00:53:56.486Z,24.05
2022-08-27T00:54:56.477Z,24.05
2022-08-27T00:55:56.464Z,24.03
2022-08-27T00:56:56.439Z,24.03
2022-08-27T00:57:56.446Z,24.03
2022-08-27T00:58:56.416Z,24.03
2022-08-27T00:59:56.403Z,24.02
2022-08-27T01:00:56.483Z,24.03
2022-08-27T01:01:56.427Z,24.03
2022-08-27T01:02:56.393Z,24.03
2022-08-27T01:03:56.360Z,24.03
2022-08-27T01:04:56.347Z,24.03
2022-08-27T01:05:56.338Z,24.03
2022-08-27T01:06:56.351Z,24.03
2022-08-27T01:07:56.318Z,24.02
2022-08-27T01:08:56.306Z,24.02
2022-08-27T01:09:56.297Z,24.02
2022-08-27T01:10:56.284Z,24.02
2022-08-27T01:11:56.298Z,24.03
2022-08-27T01:12:56.264Z,24.02
2022-08-27T01:14:00.390Z,24.02
2022-08-27T01:14:56.242Z,24.02
2022-08-27T01:15:56.279Z,24.02
2022-08-27T01:16:56.244Z,24.02
2022-08-27T01:17:56.236Z,24.03
2022-08-27T01:18:56.221Z,24.03
2022-08-27T01:19:56.191Z,24.02
2022-08-27T01:20:56.182Z,24.02
2022-08-27T01:21:56.171Z,24.03
2022-08-27T01:22:56.164Z,24.03
2022-08-27T01:23:56.172Z,24.02
2022-08-27T01:24:56.141Z,24.02
2022-08-27T01:25:56.153Z,24.03
2022-08-27T01:26:56.116Z,24.01
2022-08-27T01:27:56.110Z,24.03
2022-08-27T01:28:56.096Z,24.03
2022-08-27T01:29:56.087Z,24.01
2022-08-27T01:30:56.074Z,24.03
2022-08-27T01:31:56.183Z,24.03
2022-08-27T01:32:56.055Z,24.01
2022-08-27T01:33:56.043Z,24.02
2022-08-27T01:34:56.033Z,24.02
2022-08-27T01:35:56.025Z,24.02
2022-08-27T01:36:57.600Z,24.02
2022-08-27T01:37:57.088Z,24.03
2022-08-27T01:38:55.989Z,24.03
2022-08-27T01:39:56.054Z,24.02
2022-08-27T01:40:55.967Z,24.01
2022-08-27T01:41:55.958Z,24.02
2022-08-27T01:42:55.970Z,24.02
2022-08-27T01:43:55.938Z,24.02
2022-08-27T01:44:55.946Z,24.03
2022-08-27T01:45:55.917Z,24.01
2022-08-27T01:46:55.982Z,24.03
2022-08-27T01:47:55.918Z,24.02
2022-08-27T01:48:55.881Z,24.02
2022-08-27T01:49:55.874Z,24.02
2022-08-27T01:50:55.860Z,24.01
2022-08-27T01:51:55.851Z,24.02
2022-08-27T01:52:55.843Z,24.02
2022-08-27T01:53:55.854Z,24.03
2022-08-27T01:54:55.816Z,24.02
2022-08-27T01:55:55.810Z,24.01
2022-08-27T01:56:55.795Z,24.02
2022-08-27T01:57:55.814Z,24.02
2022-08-27T01:58:55.774Z,24.01
2022-08-27T01:59:55.763Z,24.01
2022-08-27T02:00:56.348Z,24.01
2022-08-27T02:01:55.828Z,24.02
2022-08-27T02:02:55.730Z,24.02
2022-08-27T02:03:55.744Z,24.02
2022-08-27T02:04:55.710Z,24.02
2022-08-27T02:05:55.725Z,24.02
2022-08-27T02:06:55.695Z,24.01
2022-08-27T02:07:55.678Z,24.02
2022-08-27T02:08:55.667Z,24.02
2022-08-27T02:09:55.681Z,24.02
2022-08-27T02:10:55.647Z,24.02
2022-08-27T02:11:55.637Z,24.01
2022-08-27T02:12:55.625Z,24.01
2022-08-27T02:13:55.611Z,24.02
2022-08-27T02:14:55.626Z,24.02
2022-08-27T02:15:55.674Z,24.01
2022-08-27T02:16:55.580Z,24.01
2022-08-27T02:17:55.577Z,24.02
2022-08-27T02:18:55.559Z,24.02
2022-08-27T02:19:55.578Z,24.02
2022-08-27T02:20:55.537Z,24.01
2022-08-27T02:21:55.525Z,24.01
2022-08-27T02:22:55.517Z,24.02
2022-08-27T02:23:55.503Z,24.01
2022-08-27T02:24:55.520Z,24.01
2022-08-27T02:25:55.483Z,24.01
2022-08-27T02:26:55.472Z,24.01
2022-08-27T02:27:55.488Z,24.01
2022-08-27T02:28:55.451Z,23.99
2022-08-27T02:29:55.439Z,23.99
2022-08-27T02:30:55.488Z,24.01
2022-08-27T02:31:55.418Z,24.01
2022-08-27T02:32:55.409Z,24.01
2022-08-27T02:33:55.420Z,24.01
2022-08-27T02:34:55.386Z,24.01
2022-08-27T02:35:55.376Z,24.01
2022-08-27T02:36:55.366Z,23.99
2022-08-27T02:37:55.353Z,23.99
2022-08-27T02:38:55.367Z,24.01
2022-08-27T02:39:55.395Z,23.99
2022-08-27T02:40:55.320Z,24.01
2022-08-27T02:41:55.309Z,24.01
2022-08-27T02:42:55.301Z,24.01
2022-08-27T02:43:55.318Z,23.99
2022-08-27T02:44:55.276Z,24.01
2022-08-27T02:45:55.266Z,24.01
2022-08-27T02:46:55.350Z,23.99
2022-08-27T02:47:55.245Z,24.01
2022-08-27T02:48:55.234Z,23.99
2022-08-27T02:49:55.245Z,24.01
2022-08-27T02:50:55.215Z,24.01
2022-08-27T02:51:55.201Z,23.99
2022-08-27T02:52:55.192Z,24.01
2022-08-27T02:53:55.204Z,23.99
2022-08-27T02:54:55.170Z,24.01
2022-08-27T02:55:55.158Z,23.99
2022-08-27T02:56:55.153Z,24.01
2022-08-27T02:57:55.160Z,23.99
2022-08-27T02:58:55.129Z,23.99
2022-08-27T02:59:55.117Z,23.99
2022-08-27T03:00:55.129Z,24.01
2022-08-27T03:01:55.300Z,24.01
2022-08-27T03:02:55.163Z,24.01
2022-08-27T03:03:55.073Z,23.99
2022-08-27T03:04:55.071Z,24.01
2022-08-27T03:05:55.053Z,24.01
2022-08-27T03:06:55.063Z,24.01
2022-08-27T03:07:55.052Z,24.01
2022-08-27T03:08:55.021Z,24.01
2022-08-27T03:09:55.007Z,23.99
2022-08-27T03:10:55.024Z,24.01
2022-08-27T03:11:54.986Z,24.01
2022-08-27T03:12:54.998Z,23.99
2022-08-27T03:13:54.998Z,23.99
2022-08-27T03:14:54.955Z,23.98
2022-08-27T03:15:54.981Z,23.99
2022-08-27T03:16:54.944Z,24.01
2022-08-27T03:17:54.922Z,23.99
2022-08-27T03:18:54.913Z,23.99
2022-08-27T03:19:54.925Z,23.99
2022-08-27T03:20:54.896Z,23.99
2022-08-27T03:21:55.058Z,23.99
2022-08-27T03:22:54.874Z,23.99
2022-08-27T03:23:54.861Z,23.99
2022-08-27T03:24:54.872Z,23.98
2022-08-27T03:25:54.849Z,23.99
2022-08-27T03:26:54.829Z,24.01
2022-08-27T03:27:54.818Z,23.98
2022-08-27T03:28:54.831Z,23.99
2022-08-27T03:29:54.797Z,23.99
2022-08-27T03:30:54.845Z,23.99
2022-08-27T03:31:54.775Z,23.99
2022-08-27T03:32:54.789Z,23.99
2022-08-27T03:33:54.753Z,23.99
2022-08-27T03:34:54.745Z,23.98
2022-08-27T03:35:54.732Z,23.99
2022-08-27T03:36:54.726Z,23.99
2022-08-27T03:37:54.711Z,24.01
2022-08-27T03:38:54.726Z,24.01
2022-08-27T03:39:54.740Z,23.99
2022-08-27T03:40:54.686Z,23.99
2022-08-27T03:41:55.687Z,23.99
2022-08-27T03:42:54.660Z,23.99
2022-08-27T03:43:54.679Z,23.99
2022-08-27T03:44:54.639Z,23.99
2022-08-27T03:46:01.314Z,23.99
2022-08-27T03:46:55.620Z,23.99
2022-08-27T03:47:54.614Z,23.98
2022-08-27T03:48:54.598Z,23.99
2022-08-27T03:49:54.612Z,23.98
2022-08-27T03:50:54.577Z,23.99
2022-08-27T03:51:54.567Z,23.99
2022-08-27T03:52:54.556Z,23.99
2022-08-27T03:53:54.547Z,23.99
2022-08-27T03:54:54.567Z,23.98
2022-08-27T03:55:54.525Z,23.99
2022-08-27T03:56:54.514Z,23.99
2022-08-27T03:57:54.509Z,23.99
2022-08-27T03:58:54.494Z,23.99
2022-08-27T03:59:54.564Z,23.98
2022-08-27T04:00:54.500Z,23.98
2022-08-27T04:01:54.508Z,23.99
2022-08-27T04:02:54.491Z,23.99
2022-08-27T04:03:54.443Z,23.99
2022-08-27T04:04:54.458Z,23.99
2022-08-27T04:05:54.425Z,23.99
2022-08-27T04:06:54.411Z,23.99
2022-08-27T04:07:54.404Z,23.98
2022-08-27T04:08:54.392Z,23.99
2022-08-27T04:09:54.406Z,23.98
2022-08-27T04:10:54.368Z,23.98
2022-08-27T04:11:54.361Z,23.99
2022-08-27T04:12:54.347Z,23.98
2022-08-27T04:13:54.339Z,23.98
2022-08-27T04:14:54.350Z,23.98
2022-08-27T04:15:54.360Z,23.98
2022-08-27T04:16:54.305Z,23.98
2022-08-27T04:17:54.327Z,23.99
2022-08-27T04:18:54.284Z,23.98
2022-08-27T04:19:54.274Z,23.98
2022-08-27T04:20:54.262Z,23.98
2022-08-27T04:21:54.254Z,23.98
2022-08-27T04:22:54.244Z,23.98
2022-08-27T04:23:54.254Z,23.98
2022-08-27T04:24:54.221Z,23.99
2022-08-27T04:25:54.214Z,23.98
2022-08-27T04:26:54.200Z,23.99
2022-08-27T04:27:54.212Z,23.98
2022-08-27T04:28:54.179Z,23.98
2022-08-27T04:29:54.174Z,23.99
2022-08-27T04:30:54.196Z,23.98
2022-08-27T04:31:54.151Z,23.96
2022-08-27T04:32:54.180Z,23.98
2022-08-27T04:33:54.149Z,23.99
2022-08-27T04:34:54.118Z,23.96
2022-08-27T04:35:54.110Z,23.98
2022-08-27T04:36:54.120Z,23.98
2022-08-27T04:37:54.089Z,23.98
2022-08-27T04:38:54.076Z,23.98
2022-08-27T04:39:54.114Z,23.98
2022-08-27T04:40:54.054Z,23.96
2022-08-27T04:41:54.047Z,23.98
2022-08-27T04:42:54.055Z,23.98
2022-08-27T04:43:54.025Z,23.98
2022-08-27T04:44:54.013Z,23.98
2022-08-27T04:45:54.004Z,23.98
2022-08-27T04:46:54.072Z,23.98
2022-08-27T04:47:53.985Z,23.96
2022-08-27T04:48:53.971Z,23.98
2022-08-27T04:49:53.962Z,23.96
2022-08-27T04:50:53.951Z,23.98
2022-08-27T04:51:53.940Z,23.96
2022-08-27T04:52:53.952Z,23.95
2022-08-27T04:53:53.920Z,23.96
2022-08-27T04:54:53.911Z,23.96
2022-08-27T04:55:53.933Z,23.96
2022-08-27T04:56:53.892Z,23.96
2022-08-27T04:57:53.882Z,23.99
2022-08-27T04:58:53.869Z,23.98
2022-08-27T04:59:53.860Z,23.99
2022-08-27T05:00:53.847Z,23.96
2022-08-27T05:01:53.899Z,23.98
2022-08-27T05:02:53.825Z,23.96
2022-08-27T05:03:53.816Z,23.98
2022-08-27T05:04:53.889Z,23.96
2022-08-27T05:05:53.795Z,23.96
2022-08-27T05:06:54.462Z,23.98
2022-08-27T05:07:53.776Z,23.96
2022-08-27T05:08:53.798Z,23.95
2022-08-27T05:09:53.753Z,23.96
2022-08-27T05:10:53.743Z,23.96
2022-08-27T05:11:53.730Z,23.96
2022-08-27T05:12:58.032Z,23.96
2022-08-27T05:13:54.734Z,23.96
2022-08-27T05:14:53.721Z,23.96
2022-08-27T05:15:53.775Z,23.96
2022-08-27T05:16:53.702Z,23.96
2022-08-27T05:17:53.669Z,23.96
2022-08-27T05:18:53.672Z,23.96
2022-08-27T05:19:53.673Z,23.96
2022-08-27T05:20:53.638Z,23.95
2022-08-27T05:21:53.722Z,23.96
2022-08-27T05:22:53.620Z,23.96
2022-08-27T05:23:53.606Z,23.96
2022-08-27T05:24:53.593Z,23.96
2022-08-27T05:25:53.587Z,23.96
2022-08-27T05:26:53.598Z,23.98
2022-08-27T05:27:53.562Z,23.96
2022-08-27T05:28:53.554Z,23.98
2022-08-27T05:29:53.571Z,23.96
2022-08-27T05:30:55.530Z,23.96
2022-08-27T05:31:53.519Z,23.96
2022-08-27T05:32:53.510Z,23.98
2022-08-27T05:33:53.502Z,23.96
2022-08-27T05:34:53.486Z,23.96
2022-08-27T05:35:53.498Z,23.95
2022-08-27T05:36:53.466Z,23.96
2022-08-27T05:37:53.455Z,23.95
2022-08-27T05:38:53.447Z,23.96
2022-08-27T05:39:53.490Z,23.96
2022-08-27T05:40:53.422Z,23.96
2022-08-27T05:41:53.439Z,23.98
2022-08-27T05:42:53.407Z,23.96
2022-08-27T05:43:53.391Z,23.96
2022-08-27T05:44:53.381Z,23.96
2022-08-27T05:45:53.396Z,23.95
2022-08-27T05:46:53.359Z,23.96
2022-08-27T05:47:53.377Z,23.96
2022-08-27T05:48:53.337Z,23.96
2022-08-27T05:49:53.327Z,23.96
2022-08-27T05:50:53.316Z,23.96
2022-08-27T05:51:53.307Z,23.96
2022-08-27T05:52:53.317Z,23.96
2022-08-27T05:53:53.309Z,23.96
2022-08-27T05:54:53.274Z,23.95
2022-08-27T05:55:53.263Z,23.95
2022-08-27T05:56:53.255Z,23.95
2022-08-27T05:57:53.245Z,23.95
2022-08-27T05:58:53.258Z,23.95
2022-08-27T05:59:53.223Z,23.95
2022-08-27T06:00:53.212Z,23.96
2022-08-27T06:01:53.203Z,23.95
2022-08-27T06:02:53.268Z,23.95
2022-08-27T06:03:53.182Z,23.95
2022-08-27T06:04:53.211Z,23.95
2022-08-27T06:05:53.163Z,23.95
2022-08-27T06:06:53.150Z,23.96
2022-08-27T06:07:53.165Z,23.95
2022-08-27T06:08:53.129Z,23.95
2022-08-27T06:09:53.141Z,23.95
2022-08-27T06:10:53.131Z,23.96
2022-08-27T06:11:53.102Z,23.96
2022-08-27T06:12:56.843Z,23.96
2022-08-27T06:13:53.080Z,23.95
2022-08-27T06:14:53.069Z,23.96
2022-08-27T06:15:53.132Z,23.95
2022-08-27T06:16:53.046Z,23.95
2022-08-27T06:17:53.037Z,23.96
2022-08-27T06:18:53.025Z,23.96
2022-08-27T06:19:53.039Z,23.96
2022-08-27T06:20:53.005Z,23.96
2022-08-27T06:22:00.694Z,23.95
2022-08-27T06:22:53.982Z,23.95
2022-08-27T06:23:52.978Z,23.95
2022-08-27T06:24:52.985Z,23.96
2022-08-27T06:25:52.958Z,23.95
2022-08-27T06:26:52.967Z,23.96
2022-08-27T06:27:52.931Z,23.95
2022-08-27T06:28:52.921Z,23.95
2022-08-27T06:29:52.934Z,23.93
2022-08-27T06:30:52.982Z,23.93
2022-08-27T06:31:52.889Z,23.96
2022-08-27T06:32:52.883Z,23.95
2022-08-27T06:33:52.868Z,23.95
2022-08-27T06:34:52.883Z,23.95
2022-08-27T06:35:52.847Z,23.95
2022-08-27T06:36:52.864Z,23.95
2022-08-27T06:37:52.828Z,23.95
2022-08-27T06:38:52.820Z,23.95
2022-08-27T06:39:52.884Z,23.96
2022-08-27T06:40:52.799Z,23.95
2022-08-27T06:41:52.824Z,23.96
2022-08-27T06:42:52.776Z,23.95
2022-08-27T06:43:52.765Z,23.96
2022-08-27T06:44:52.759Z,23.95
2022-08-27T06:45:52.840Z,23.95
2022-08-27T06:46:52.736Z,23.95
2022-08-27T06:47:52.744Z,23.95
2022-08-27T06:48:52.715Z,23.95
2022-08-27T06:49:52.704Z,23.96
2022-08-27T06:50:52.695Z,23.96
2022-08-27T06:51:52.703Z,23.95
2022-08-27T06:52:52.673Z,23.95
2022-08-27T06:53:52.663Z,23.93
2022-08-27T06:54:52.652Z,23.95
2022-08-27T06:55:52.640Z,23.95
2022-08-27T06:56:52.654Z,23.95
2022-08-27T06:57:52.658Z,23.95
2022-08-27T06:58:52.611Z,23.95
2022-08-27T06:59:52.599Z,23.95
2022-08-27T07:00:52.593Z,23.96
2022-08-27T07:01:52.689Z,23.93
2022-08-27T07:02:52.643Z,23.95
2022-08-27T07:03:52.555Z,23.95
2022-08-27T07:04:52.546Z,23.95
2022-08-27T07:05:52.534Z,23.95
2022-08-27T07:06:52.527Z,23.96
2022-08-27T07:07:52.537Z,23.95
2022-08-27T07:08:53.383Z,23.95
2022-08-27T07:09:52.492Z,23.95
2022-08-27T07:10:52.483Z,23.95
2022-08-27T07:11:52.469Z,23.95
2022-08-27T07:12:52.485Z,23.95
2022-08-27T07:13:52.449Z,23.95
2022-08-27T07:14:52.441Z,23.95
2022-08-27T07:15:52.501Z,23.96
2022-08-27T07:16:52.603Z,23.95
2022-08-27T07:17:52.408Z,23.93
2022-08-27T07:18:52.401Z,23.95
2022-08-27T07:19:52.387Z,23.95
2022-08-27T07:20:52.424Z,23.95
2022-08-27T07:21:52.365Z,23.93
2022-08-27T07:22:52.356Z,23.95
2022-08-27T07:23:52.352Z,23.96
2022-08-27T07:24:52.332Z,23.95
2022-08-27T07:25:52.320Z,23.96
2022-08-27T07:26:52.342Z,23.95
2022-08-27T07:27:52.299Z,23.95
2022-08-27T07:28:52.289Z,23.95
2022-08-27T07:29:52.279Z,23.95
2022-08-27T07:30:52.322Z,23.93
2022-08-27T07:31:52.256Z,23.95
2022-08-27T07:32:52.426Z,23.96
2022-08-27T07:33:52.806Z,23.95
2022-08-27T07:34:52.226Z,23.95
2022-08-27T07:35:52.212Z,23.95
2022-08-27T07:36:52.204Z,23.95
2022-08-27T07:37:52.192Z,23.95
2022-08-27T07:38:53.528Z,23.95
2022-08-27T07:39:53.183Z,23.96
2022-08-27T07:40:52.161Z,23.95
2022-08-27T07:41:52.172Z,23.95
2022-08-27T07:42:52.142Z,23.95
2022-08-27T07:43:52.128Z,23.95
2022-08-27T07:44:52.118Z,23.95
2022-08-27T07:45:52.190Z,23.95
2022-08-27T07:46:52.099Z,23.95
2022-08-27T07:47:52.087Z,23.95
2022-08-27T07:48:52.082Z,23.93
2022-08-27T07:49:52.066Z,23.95
2022-08-27T07:50:52.083Z,23.96
2022-08-27T07:51:52.045Z,23.95
2022-08-27T07:52:52.036Z,23.95
2022-08-27T07:53:52.024Z,23.96
2022-08-27T07:54:52.016Z,23.95
2022-08-27T07:55:52.027Z,23.96
2022-08-27T07:56:55.292Z,23.96
2022-08-27T07:57:51.980Z,23.95
2022-08-27T07:58:51.971Z,23.95
2022-08-27T07:59:51.982Z,23.95
2022-08-27T08:00:51.949Z,23.96
2022-08-27T08:01:52.099Z,23.95
2022-08-27T08:02:52.012Z,23.95
2022-08-27T08:03:51.916Z,23.96
2022-08-27T08:04:51.933Z,23.98
2022-08-27T08:05:51.895Z,23.96
2022-08-27T08:06:51.888Z,23.96
2022-08-27T08:07:51.905Z,23.96
2022-08-27T08:08:51.866Z,23.98
2022-08-27T08:09:51.852Z,23.96
2022-08-27T08:10:51.843Z,23.98
2022-08-27T08:11:51.831Z,23.98
2022-08-27T08:12:51.822Z,23.98
2022-08-27T08:13:51.833Z,23.98
2022-08-27T08:14:51.801Z,23.99
2022-08-27T08:15:51.790Z,23.98
2022-08-27T08:16:51.883Z,23.98
2022-08-27T08:17:51.771Z,23.98
2022-08-27T08:18:51.782Z,23.99
2022-08-27T08:20:15.365Z,23.99
2022-08-27T08:20:58.635Z,24.01
2022-08-27T08:21:57.232Z,23.99
2022-08-27T08:22:52.719Z,24.01
2022-08-27T08:23:51.731Z,24.02
2022-08-27T08:24:51.728Z,24.02
2022-08-27T08:25:51.696Z,24.02
2022-08-27T08:26:51.679Z,24.03
2022-08-27T08:27:51.665Z,24.03
2022-08-27T08:28:51.658Z,24.05
2022-08-27T08:29:51.645Z,24.06
2022-08-27T08:30:51.742Z,24.05
2022-08-27T08:31:51.656Z,24.06
2022-08-27T08:32:51.618Z,24.10
2022-08-27T08:33:51.603Z,24.08
2022-08-27T08:34:51.595Z,24.10
2022-08-27T08:35:51.581Z,24.08
2022-08-27T08:36:55.025Z,24.10
2022-08-27T08:37:51.583Z,24.10
2022-08-27T08:38:51.556Z,24.10
2022-08-27T08:39:51.607Z,24.10
2022-08-27T08:40:51.569Z,24.10
2022-08-27T08:41:51.522Z,24.10
2022-08-27T08:42:51.549Z,24.10
2022-08-27T08:43:51.518Z,24.10
2022-08-27T08:44:51.519Z,24.10
2022-08-27T08:45:51.518Z,24.10
2022-08-27T08:46:51.490Z,24.10
2022-08-27T08:47:51.457Z,24.10
2022-08-27T08:48:51.445Z,24.08
2022-08-27T08:49:51.435Z,24.11
2022-08-27T08:50:51.427Z,24.10
2022-08-27T08:51:51.441Z,24.10
2022-08-27T08:52:51.408Z,24.10
2022-08-27T08:53:51.391Z,24.08
2022-08-27T08:54:51.386Z,24.08
2022-08-27T08:55:51.372Z,24.10
2022-08-27T08:56:54.915Z,24.10
2022-08-27T08:57:51.391Z,24.10
2022-08-27T08:58:51.343Z,24.10
2022-08-27T08:59:51.380Z,24.08
2022-08-27T09:00:51.357Z,24.08
2022-08-27T09:01:51.309Z,24.06
2022-08-27T09:02:51.336Z,24.06
2022-08-27T09:03:51.315Z,24.08
2022-08-27T09:04:51.281Z,24.08
2022-08-27T09:05:51.267Z,24.08
2022-08-27T09:06:51.258Z,24.06
2022-08-27T09:07:51.245Z,24.10
2022-08-27T09:08:51.261Z,24.08
2022-08-27T09:09:51.255Z,24.06
2022-08-27T09:10:51.219Z,24.08
2022-08-27T09:11:51.229Z,24.08
2022-08-27T09:12:51.194Z,24.08
2022-08-27T09:13:51.183Z,24.06
2022-08-27T09:14:51.175Z,24.08
2022-08-27T09:15:51.186Z,24.08
2022-08-27T09:16:51.238Z,24.08
2022-08-27T09:17:52.140Z,24.06
2022-08-27T09:18:52.386Z,24.06
2022-08-27T09:19:52.457Z,24.08
2022-08-27T09:20:51.155Z,24.06
2022-08-27T09:21:51.097Z,24.08
2022-08-27T09:22:51.089Z,24.06
2022-08-27T09:23:51.077Z,24.06
2022-08-27T09:24:51.068Z,24.08
2022-08-27T09:25:51.090Z,24.10
2022-08-27T09:26:51.044Z,24.08
2022-08-27T09:27:51.057Z,24.06
2022-08-27T09:28:51.051Z,24.08
2022-08-27T09:29:51.011Z,24.06
2022-08-27T09:30:51.087Z,24.08
2022-08-27T09:31:50.989Z,24.06
2022-08-27T09:32:50.980Z,24.06
2022-08-27T09:33:55.808Z,24.08
2022-08-27T09:34:51.992Z,24.08
2022-08-27T09:35:50.948Z,24.08
2022-08-27T09:36:50.967Z,24.06
2022-08-27T09:37:50.927Z,24.08
2022-08-27T09:38:50.919Z,24.08
2022-08-27T09:39:51.941Z,24.08
2022-08-27T09:40:50.962Z,24.08
2022-08-27T09:41:50.887Z,24.06
2022-08-27T09:42:50.896Z,24.08
2022-08-27T09:43:50.862Z,24.08
2022-08-27T09:44:53.657Z,24.06
2022-08-27T09:45:50.897Z,24.06
2022-08-27T09:46:50.831Z,24.06
2022-08-27T09:47:50.828Z,24.06
2022-08-27T09:48:52.213Z,24.06
2022-08-27T09:49:50.823Z,24.06
2022-08-27T09:50:50.814Z,24.06
2022-08-27T09:51:50.799Z,24.08
2022-08-27T09:52:50.770Z,24.06
2022-08-27T09:53:50.756Z,24.08
2022-08-27T09:54:50.744Z,24.08
2022-08-27T09:55:50.736Z,24.06
2022-08-27T09:56:50.746Z,24.08
2022-08-27T09:57:50.718Z,24.08
2022-08-27T09:58:50.706Z,24.06
2022-08-27T09:59:50.693Z,24.06
2022-08-27T10:00:50.726Z,24.08
2022-08-27T10:01:50.694Z,24.06
2022-08-27T10:02:50.680Z,24.08
2022-08-27T10:03:50.701Z,24.06
2022-08-27T10:04:51.911Z,24.08
2022-08-27T10:05:50.711Z,24.08
2022-08-27T10:06:50.618Z,24.06
2022-08-27T10:07:50.630Z,24.06
2022-08-27T10:08:50.597Z,24.08
2022-08-27T10:09:50.586Z,24.06
2022-08-27T10:10:50.571Z,24.06
2022-08-27T10:11:50.561Z,24.08
2022-08-27T10:12:50.572Z,24.06
2022-08-27T10:13:50.566Z,24.06
2022-08-27T10:14:50.528Z,24.08
2022-08-27T10:15:50.519Z,24.06
2022-08-27T10:16:50.606Z,24.08
2022-08-27T10:17:50.522Z,24.06
2022-08-27T10:18:50.484Z,24.08
2022-08-27T10:19:50.478Z,24.06
2022-08-27T10:20:50.464Z,24.06
2022-08-27T10:21:50.455Z,24.08
2022-08-27T10:22:50.469Z,24.08
2022-08-27T10:23:50.432Z,24.08
2022-08-27T10:24:50.420Z,24.06
2022-08-27T10:25:50.413Z,24.06
2022-08-27T10:26:50.400Z,24.10
2022-08-27T10:27:50.391Z,24.08
2022-08-27T10:28:50.399Z,24.06
2022-08-27T10:29:50.373Z,24.08
2022-08-27T10:30:50.356Z,24.08
2022-08-27T10:31:50.449Z,24.06
2022-08-27T10:32:52.274Z,24.08
2022-08-27T10:33:50.348Z,24.06
2022-08-27T10:34:50.334Z,24.08
2022-08-27T10:35:54.920Z,24.10
2022-08-27T10:36:50.291Z,24.08
2022-08-27T10:37:50.284Z,24.06
2022-08-27T10:38:50.271Z,24.08
2022-08-27T10:39:50.318Z,24.10
2022-08-27T10:40:50.249Z,24.08
2022-08-27T10:41:50.239Z,24.08
2022-08-27T10:42:50.231Z,24.10
2022-08-27T10:43:51.216Z,24.08
2022-08-27T10:44:50.208Z,24.10
2022-08-27T10:45:50.248Z,24.10
2022-08-27T10:46:50.896Z,24.10
2022-08-27T10:47:50.176Z,24.08
2022-08-27T10:48:50.166Z,24.10
2022-08-27T10:49:50.152Z,24.10
2022-08-27T10:50:50.144Z,24.10
2022-08-27T10:51:50.179Z,24.10
2022-08-27T10:52:51.521Z,24.11
2022-08-27T10:53:50.110Z,24.11
2022-08-27T10:54:50.101Z,24.11
2022-08-27T10:55:50.087Z,24.10
2022-08-27T10:57:00.082Z,24.10
2022-08-27T10:58:00.126Z,24.10
2022-08-27T10:58:51.055Z,24.10
2022-08-27T10:59:50.043Z,24.11
2022-08-27T11:00:50.237Z,24.10
2022-08-27T11:01:50.054Z,24.13
2022-08-27T11:02:50.045Z,24.11
2022-08-27T11:03:50.006Z,24.11
2022-08-27T11:04:49.991Z,24.11
2022-08-27T11:05:49.979Z,24.11
2022-08-27T11:06:49.969Z,24.10
2022-08-27T11:07:49.990Z,24.10
2022-08-27T11:08:50.016Z,24.11
2022-08-27T11:09:53.693Z,24.11
2022-08-27T11:10:50.925Z,24.10
2022-08-27T11:12:50.934Z,24.10
2022-08-27T11:13:49.895Z,24.11
2022-08-27T11:14:49.974Z,24.10
2022-08-27T11:15:49.870Z,24.10
2022-08-27T11:16:49.931Z,24.10
2022-08-27T11:17:49.850Z,24.10
2022-08-27T11:18:49.870Z,24.11
2022-08-27T11:19:49.828Z,24.10
2022-08-27T11:20:49.817Z,24.10
2022-08-27T11:21:49.806Z,24.10
2022-08-27T11:22:49.798Z,24.10
2022-08-27T11:23:49.784Z,24.10
2022-08-27T11:24:49.797Z,24.08
2022-08-27T11:25:49.764Z,24.08
2022-08-27T11:26:49.755Z,24.10
2022-08-27T11:27:49.742Z,24.08
2022-08-27T11:28:49.732Z,24.10
2022-08-27T11:29:49.743Z,24.10
2022-08-27T11:30:49.709Z,24.10
2022-08-27T11:31:49.740Z,24.10
2022-08-27T11:32:49.712Z,24.10
2022-08-27T11:33:49.676Z,24.10
2022-08-27T11:34:49.667Z,24.08
2022-08-27T11:35:49.654Z,24.10
2022-08-27T11:36:54.186Z,24.08
2022-08-27T11:37:49.633Z,24.06
2022-08-27T11:38:49.646Z,24.08
2022-08-27T11:39:51.875Z,24.08
2022-08-27T11:40:49.603Z,24.10
2022-08-27T11:41:49.593Z,24.08
2022-08-27T11:42:49.584Z,24.06
2022-08-27T11:43:49.595Z,24.08
2022-08-27T11:44:49.560Z,24.08
2022-08-27T11:45:49.546Z,24.08
2022-08-27T11:46:49.705Z,24.06
2022-08-27T11:47:49.524Z,24.08
2022-08-27T11:48:49.515Z,24.08
2022-08-27T11:49:50.527Z,24.06
2022-08-27T11:50:49.495Z,24.06
2022-08-27T11:51:49.482Z,24.08
2022-08-27T11:52:49.475Z,24.06
2022-08-27T11:53:52.724Z,24.06
2022-08-27T11:54:49.477Z,24.06
2022-08-27T11:55:49.462Z,24.06
2022-08-27T11:56:49.432Z,24.06
2022-08-27T11:57:49.420Z,24.06
2022-08-27T11:58:52.894Z,24.06
2022-08-27T11:59:49.397Z,24.05
2022-08-27T12:00:49.388Z,24.06
2022-08-27T12:01:49.403Z,24.05
2022-08-27T12:02:49.368Z,24.05
2022-08-27T12:03:49.553Z,24.06
2022-08-27T12:04:49.612Z,24.06
2022-08-27T12:05:49.335Z,24.05
2022-08-27T12:06:49.327Z,24.05
2022-08-27T12:07:49.335Z,24.06
2022-08-27T12:08:49.304Z,24.05
2022-08-27T12:09:49.293Z,24.06
2022-08-27T12:10:49.330Z,24.05
2022-08-27T12:11:52.350Z,24.05
2022-08-27T12:12:50.262Z,24.05
2022-08-27T12:13:49.249Z,24.05
2022-08-27T12:14:49.241Z,24.05
2022-08-27T12:15:49.408Z,24.05
2022-08-27T12:16:49.314Z,24.05
2022-08-27T12:17:49.208Z,24.05
2022-08-27T12:18:49.200Z,24.05
2022-08-27T12:19:49.187Z,24.06
2022-08-27T12:20:49.179Z,24.05
2022-08-27T12:21:49.186Z,24.05
2022-08-27T12:22:49.154Z,24.05
2022-08-27T12:23:49.143Z,24.05
2022-08-27T12:24:49.132Z,24.03
2022-08-27T12:25:49.124Z,24.03
2022-08-27T12:26:49.151Z,24.05
2022-08-27T12:27:49.099Z,24.05
2022-08-27T12:28:49.091Z,24.05
2022-08-27T12:29:49.079Z,24.05
2022-08-27T12:30:49.095Z,24.05
2022-08-27T12:31:49.107Z,24.03
2022-08-27T12:32:49.050Z,24.05
2022-08-27T12:33:49.064Z,24.05
2022-08-27T12:34:49.027Z,24.03
2022-08-27T12:35:49.017Z,24.05
2022-08-27T12:36:49.005Z,24.03
2022-08-27T12:37:48.993Z,24.05
2022-08-27T12:38:50.531Z,24.03
2022-08-27T12:39:48.971Z,24.05
2022-08-27T12:40:48.984Z,24.03
2022-08-27T12:41:48.949Z,24.05
2022-08-27T12:42:48.941Z,24.03
2022-08-27T12:43:48.927Z,24.05
2022-08-27T12:44:48.943Z,24.05
2022-08-27T12:45:48.905Z,24.03
2022-08-27T12:46:48.950Z,24.05
2022-08-27T12:47:50.957Z,24.03
2022-08-27T12:48:48.952Z,24.03
2022-08-27T12:49:52.577Z,24.05
2022-08-27T12:50:49.854Z,24.05
2022-08-27T12:51:48.843Z,24.03
2022-08-27T12:52:48.843Z,24.03
2022-08-27T12:53:48.842Z,24.03